ENNM/OSY METAR and TAF weather

Enter ICAO airport designator
Station Type Date Time Source
ENNM METAR 2021/07/27 20:20 UTC NOAA

ENNM 272020Z 11010KT CAVOK 25/13 Q1010


Station Type Date Time Source
ENNM Decoded METAR 2021/07/27 20:20 UTC NOAA

Namsos Lufthavn, Norway (ENNM) 64-28N 011-35E 2M
Jul 27, 2021 - 04:20 PM EDT / 2021.07.27 2020 UTC
Wind: from the ESE (110 degrees) at 12 MPH (10 KT):0
Visibility: greater than 7 mile(s):0
Temperature: 77 F (25 C)
Dew Point: 55 F (13 C)
Relative Humidity: 47%
Pressure (altimeter): 29.83 in. Hg (1010 hPa)
ob: ENNM 272020Z 11010KT CAVOK 25/13 Q1010
cycle: 20

Station Type Date Time Source
ENNM TAF UTC NOAA

Error!

Example: see airport list